createdAt,value
2023-10-26T00:02:40.663Z,6.32
2023-10-26T00:05:42.526Z,8.55
2023-10-26T00:08:44.180Z,7.32
2023-10-26T00:11:46.007Z,7.77
2023-10-26T00:14:47.833Z,6.80
2023-10-26T00:17:49.620Z,9.45
2023-10-26T00:20:57.894Z,7.47
2023-10-26T00:23:59.554Z,7.45
2023-10-26T00:27:01.267Z,8.17
2023-10-26T00:30:03.056Z,6.60
2023-10-26T00:33:04.948Z,7.10
2023-10-26T00:36:07.323Z,6.97
2023-10-26T00:39:08.966Z,6.43
2023-10-26T00:42:10.619Z,7.27
2023-10-26T00:45:12.393Z,8.48
2023-10-26T00:48:14.705Z,7.93
2023-10-26T00:51:16.437Z,7.28
2023-10-26T00:54:21.220Z,9.20
2023-10-26T00:57:25.082Z,6.67
2023-10-26T01:00:28.425Z,6.57
2023-10-26T01:03:32.034Z,6.68
2023-10-26T01:06:33.766Z,8.40
2023-10-26T01:09:35.698Z,6.95
2023-10-26T01:12:37.596Z,8.27
2023-10-26T01:15:39.472Z,7.55
2023-10-26T01:18:41.181Z,5.90
2023-10-26T01:21:53.433Z,7.18
2023-10-26T01:24:55.020Z,7.15
2023-10-26T01:27:56.696Z,8.00
2023-10-26T01:30:59.246Z,7.60
2023-10-26T01:34:00.977Z,9.52
2023-10-26T01:37:06.606Z,8.70
2023-10-26T01:40:09.699Z,6.10
2023-10-26T01:43:11.324Z,6.63
2023-10-26T01:46:12.972Z,7.32
2023-10-26T01:49:14.859Z,6.82
2023-10-26T01:52:16.533Z,8.82
2023-10-26T01:55:18.144Z,6.00
2023-10-26T01:58:19.776Z,13.60
2023-10-26T02:01:21.475Z,7.40
2023-10-26T02:04:23.145Z,9.85
2023-10-26T02:07:24.771Z,5.35
2023-10-26T02:10:30.621Z,6.10
2023-10-26T02:13:32.430Z,7.40
2023-10-26T02:16:34.013Z,7.72
2023-10-26T02:19:35.693Z,5.95
2023-10-26T02:22:37.400Z,4.88
2023-10-26T02:25:39.003Z,7.65
2023-10-26T02:28:40.607Z,7.50
2023-10-26T02:31:42.225Z,6.78
2023-10-26T02:34:44.100Z,6.00
2023-10-26T02:37:45.960Z,6.40
2023-10-26T02:40:47.562Z,7.80
2023-10-26T02:43:49.258Z,7.23
2023-10-26T02:46:50.958Z,8.32
2023-10-26T02:49:53.309Z,9.90
2023-10-26T02:52:55.078Z,10.23
2023-10-26T02:55:56.728Z,8.77
2023-10-26T02:58:58.352Z,6.27
2023-10-26T03:01:59.981Z,8.18
2023-10-26T03:05:02.367Z,10.85
2023-10-26T03:08:04.340Z,9.60
2023-10-26T03:11:05.942Z,10.88
2023-10-26T03:14:08.254Z,7.37
2023-10-26T03:17:10.894Z,7.63
2023-10-26T03:20:12.950Z,12.32
2023-10-26T03:23:14.622Z,8.43
2023-10-26T03:26:16.222Z,7.55
2023-10-26T03:29:17.919Z,8.17
2023-10-26T03:32:19.654Z,8.50
2023-10-26T03:35:21.319Z,8.70
2023-10-26T03:38:23.067Z,9.63
2023-10-26T03:41:24.679Z,8.05
2023-10-26T03:44:26.347Z,6.27
2023-10-26T03:47:28.176Z,7.53
2023-10-26T03:50:29.942Z,6.55
2023-10-26T03:53:31.718Z,7.45
2023-10-26T03:56:33.588Z,6.45
2023-10-26T03:59:35.305Z,8.37
2023-10-26T04:02:36.995Z,8.68
2023-10-26T04:05:38.646Z,8.35
2023-10-26T04:08:40.317Z,13.88
2023-10-26T04:11:45.848Z,6.95
2023-10-26T04:14:47.487Z,7.87
2023-10-26T04:17:49.364Z,8.07
2023-10-26T04:20:51.019Z,9.18
2023-10-26T04:23:52.737Z,8.95
2023-10-26T04:26:54.383Z,11.50
2023-10-26T04:29:56.078Z,10.70
2023-10-26T04:32:57.815Z,7.88
2023-10-26T04:36:04.158Z,8.23
2023-10-26T04:39:06.111Z,9.88
2023-10-26T04:42:08.165Z,9.50
2023-10-26T04:45:10.222Z,11.03
2023-10-26T04:48:11.989Z,10.40
2023-10-26T04:51:13.720Z,11.38
2023-10-26T04:54:15.398Z,8.82
2023-10-26T04:57:17.086Z,10.07
2023-10-26T05:00:18.845Z,9.30
2023-10-26T05:03:20.550Z,8.65
2023-10-26T05:06:22.394Z,7.78
2023-10-26T05:09:24.174Z,9.23
2023-10-26T05:12:25.839Z,7.95
2023-10-26T05:15:27.705Z,9.03
2023-10-26T05:18:29.510Z,6.72
2023-10-26T05:21:31.317Z,8.10
2023-10-26T05:24:33.856Z,8.05
2023-10-26T05:27:37.138Z,8.55
2023-10-26T05:30:39.260Z,6.77
2023-10-26T05:33:43.085Z,8.32
2023-10-26T05:36:44.833Z,8.23
2023-10-26T05:39:46.605Z,8.05
2023-10-26T05:42:48.290Z,11.00
2023-10-26T05:45:50.529Z,13.97
2023-10-26T05:48:52.285Z,11.48
2023-10-26T05:51:54.781Z,11.60
2023-10-26T05:54:56.588Z,8.48
2023-10-26T05:57:58.206Z,8.95
2023-10-26T06:01:01.147Z,10.80
2023-10-26T06:04:03.276Z,7.80
2023-10-26T06:07:05.215Z,11.38
2023-10-26T06:10:07.737Z,11.82
2023-10-26T06:13:09.497Z,11.15
2023-10-26T06:16:14.298Z,9.77
2023-10-26T06:19:16.153Z,11.35
2023-10-26T06:22:17.829Z,10.55
2023-10-26T06:25:19.715Z,9.25
2023-10-26T06:28:21.359Z,11.00
2023-10-26T06:31:23.274Z,10.13
2023-10-26T06:34:26.299Z,10.13
2023-10-26T06:37:29.435Z,9.25
2023-10-26T06:40:31.181Z,11.07
2023-10-26T06:43:34.112Z,10.57
2023-10-26T06:46:36.432Z,8.63
2023-10-26T06:49:38.096Z,9.65
2023-10-26T06:52:39.730Z,11.13
2023-10-26T06:55:41.651Z,11.50
2023-10-26T06:58:44.481Z,12.63
2023-10-26T07:02:08.809Z,10.60
2023-10-26T07:05:08.402Z,14.48
2023-10-26T07:08:10.819Z,10.15
2023-10-26T07:11:12.564Z,9.23
2023-10-26T07:14:14.213Z,9.60
2023-10-26T07:17:16.108Z,11.20
2023-10-26T07:20:18.979Z,10.35
2023-10-26T07:23:21.122Z,12.98
2023-10-26T07:26:25.172Z,9.88
2023-10-26T07:29:26.800Z,9.27
2023-10-26T07:32:28.649Z,10.63
2023-10-26T07:35:30.438Z,13.88
2023-10-26T07:38:35.451Z,8.68
2023-10-26T07:42:07.052Z,9.57
2023-10-26T07:45:01.564Z,9.13
2023-10-26T07:48:03.309Z,10.83
2023-10-26T07:51:05.397Z,9.45
2023-10-26T07:54:07.390Z,8.35
2023-10-26T07:57:09.096Z,8.65
2023-10-26T08:00:12.834Z,8.82
2023-10-26T08:03:14.535Z,9.30
2023-10-26T08:06:16.693Z,10.13
2023-10-26T08:09:19.519Z,9.10
2023-10-26T08:12:21.464Z,9.32
2023-10-26T08:16:33.508Z,10.63
2023-10-26T08:18:44.839Z,10.00
2023-10-26T08:21:47.387Z,12.85
2023-10-26T08:24:49.565Z,10.48
2023-10-26T08:27:51.952Z,11.27
2023-10-26T08:30:55.394Z,11.23
2023-10-26T08:33:57.113Z,10.60
2023-10-26T08:37:13.166Z,9.93
2023-10-26T08:40:15.667Z,11.50
2023-10-26T08:43:18.734Z,9.18
2023-10-26T08:46:20.534Z,9.73
2023-10-26T08:49:24.322Z,8.97
2023-10-26T08:52:26.013Z,10.50
2023-10-26T08:55:27.920Z,8.15
2023-10-26T08:58:29.850Z,8.60
2023-10-26T09:01:31.586Z,8.93
2023-10-26T09:04:33.650Z,8.73
2023-10-26T09:07:36.195Z,6.50
2023-10-26T09:10:37.968Z,8.95
2023-10-26T09:13:39.673Z,8.45
2023-10-26T09:16:42.490Z,10.02
2023-10-26T09:19:47.241Z,8.17
2023-10-26T09:22:49.358Z,6.53
2023-10-26T09:26:01.705Z,5.72
2023-10-26T09:29:03.601Z,6.03
2023-10-26T09:32:05.900Z,5.78
2023-10-26T09:35:07.947Z,6.80
2023-10-26T09:38:09.622Z,6.22
2023-10-26T09:41:17.242Z,5.10
2023-10-26T09:44:19.220Z,9.35
2023-10-26T09:47:22.676Z,7.85
2023-10-26T09:50:27.736Z,7.80
2023-10-26T09:53:35.765Z,5.30
2023-10-26T09:56:40.541Z,5.32
2023-10-26T09:59:42.825Z,6.05
2023-10-26T10:02:44.480Z,3.45
2023-10-26T10:05:48.555Z,5.73
2023-10-26T10:09:00.478Z,4.65
2023-10-26T10:12:05.379Z,7.28
2023-10-26T10:15:36.325Z,7.70
2023-10-26T10:18:32.166Z,3.60
2023-10-26T10:21:37.073Z,4.00
2023-10-26T10:24:44.827Z,4.90
2023-10-26T10:27:49.857Z,4.40
2023-10-26T10:31:01.903Z,4.60
2023-10-26T10:34:04.593Z,6.18
2023-10-26T10:37:13.014Z,6.47
2023-10-26T10:40:16.598Z,4.45
2023-10-26T10:43:18.576Z,6.80
2023-10-26T10:46:22.754Z,5.18
2023-10-26T10:49:25.238Z,4.72
2023-10-26T10:52:26.968Z,6.27
2023-10-26T10:55:31.204Z,6.88
2023-10-26T10:58:42.116Z,5.32
2023-10-26T11:01:45.022Z,4.22
2023-10-26T11:05:09.282Z,3.50
2023-10-26T11:08:17.718Z,4.50
2023-10-26T11:11:29.541Z,2.70
2023-10-26T11:14:31.258Z,3.15
2023-10-26T11:17:33.207Z,5.05
2023-10-26T11:20:38.417Z,3.17
2023-10-26T11:23:40.169Z,8.50
2023-10-26T11:26:41.800Z,4.20
2023-10-26T11:29:45.315Z,5.35
2023-10-26T11:32:47.408Z,5.75
2023-10-26T11:35:49.241Z,4.47
2023-10-26T11:38:52.345Z,3.30
2023-10-26T11:41:55.511Z,2.40
2023-10-26T11:44:58.249Z,4.28
2023-10-26T11:48:01.434Z,5.05
2023-10-26T11:51:07.903Z,3.80
2023-10-26T11:54:13.757Z,5.07
2023-10-26T11:57:15.485Z,5.28
2023-10-26T12:00:19.355Z,6.78
2023-10-26T12:03:21.246Z,5.10
2023-10-26T12:06:23.705Z,3.83
2023-10-26T12:09:25.422Z,5.17
2023-10-26T12:12:27.349Z,7.88
2023-10-26T12:15:29.312Z,3.83
2023-10-26T12:18:31.184Z,3.97
2023-10-26T12:21:32.908Z,3.97
2023-10-26T12:24:35.277Z,3.70
2023-10-26T12:28:19.691Z,4.60
2023-10-26T12:30:58.941Z,7.10
2023-10-26T12:34:02.095Z,7.47
2023-10-26T12:37:04.723Z,3.70
2023-10-26T12:40:09.303Z,5.23
2023-10-26T12:43:10.988Z,5.32
2023-10-26T12:46:13.643Z,3.25
2023-10-26T12:49:15.357Z,5.78
2023-10-26T12:52:17.074Z,6.57
2023-10-26T12:55:18.912Z,7.97
2023-10-26T12:58:20.727Z,6.60
2023-10-26T13:01:22.404Z,6.93
2023-10-26T13:04:24.142Z,7.13
2023-10-26T13:07:28.262Z,7.78
2023-10-26T13:10:31.883Z,5.07
2023-10-26T13:13:33.560Z,5.45
2023-10-26T13:16:50.268Z,5.95
2023-10-26T13:19:56.792Z,7.07
2023-10-26T13:22:58.573Z,6.50
2023-10-26T13:26:00.927Z,6.70
2023-10-26T13:29:02.654Z,5.38
2023-10-26T13:32:04.746Z,5.38
2023-10-26T13:35:06.832Z,5.90
2023-10-26T13:38:14.412Z,6.55
2023-10-26T13:41:17.242Z,5.33
2023-10-26T13:44:18.883Z,5.72
2023-10-26T13:47:20.640Z,5.88
2023-10-26T13:50:22.292Z,5.20
2023-10-26T13:53:23.933Z,5.13
2023-10-26T13:56:25.798Z,4.97
2023-10-26T13:59:29.615Z,4.43
2023-10-26T14:02:31.258Z,5.82
2023-10-26T14:05:33.092Z,6.90
2023-10-26T14:08:34.716Z,5.45
2023-10-26T14:11:36.350Z,6.83
2023-10-26T14:14:40.332Z,6.72
2023-10-26T14:17:42.035Z,9.15
2023-10-26T14:20:43.848Z,5.30
2023-10-26T14:23:45.503Z,6.00
2023-10-26T14:26:47.155Z,6.23
2023-10-26T14:29:49.977Z,5.35
2023-10-26T14:32:51.769Z,7.78
2023-10-26T14:35:53.629Z,4.78
2023-10-26T14:38:55.321Z,6.68
2023-10-26T14:41:57.246Z,4.43
2023-10-26T14:44:58.935Z,4.65
2023-10-26T14:48:00.841Z,4.35
2023-10-26T14:51:02.661Z,6.13
2023-10-26T14:54:04.412Z,4.63
2023-10-26T14:57:06.018Z,4.60
2023-10-26T15:00:08.388Z,6.90
2023-10-26T15:03:10.778Z,5.05
2023-10-26T15:06:12.558Z,6.75
2023-10-26T15:09:14.191Z,6.47
2023-10-26T15:12:37.632Z,5.43
2023-10-26T15:15:39.318Z,6.20
2023-10-26T15:18:41.062Z,6.57
2023-10-26T15:21:42.724Z,5.15
2023-10-26T15:24:44.517Z,6.25
2023-10-26T15:27:46.275Z,6.73
2023-10-26T15:30:48.014Z,5.05
2023-10-26T15:33:49.765Z,5.65
2023-10-26T15:36:51.400Z,6.35
2023-10-26T15:39:55.751Z,6.85
2023-10-26T15:42:57.503Z,6.17
2023-10-26T15:46:11.786Z,9.88
2023-10-26T15:49:34.925Z,6.10
2023-10-26T15:52:35.498Z,6.22
2023-10-26T15:55:37.156Z,7.32
2023-10-26T15:58:39.062Z,9.07
2023-10-26T16:01:40.799Z,7.70
2023-10-26T16:04:42.900Z,9.02
2023-10-26T16:07:44.946Z,9.40
2023-10-26T16:10:46.570Z,11.60
2023-10-26T16:13:48.300Z,8.30
2023-10-26T16:16:50.120Z,7.13
2023-10-26T16:19:54.752Z,7.57
2023-10-26T16:22:56.404Z,7.10
2023-10-26T16:25:59.339Z,7.10
2023-10-26T16:29:01.185Z,8.50
2023-10-26T16:32:04.024Z,6.65
2023-10-26T16:35:06.721Z,5.78
2023-10-26T16:38:08.615Z,7.03
2023-10-26T16:41:10.959Z,7.18
2023-10-26T16:44:12.652Z,5.03
2023-10-26T16:47:16.977Z,5.22
2023-10-26T16:50:22.826Z,5.38
2023-10-26T16:53:31.732Z,5.72
2023-10-26T16:56:34.348Z,6.50
2023-10-26T16:59:36.006Z,6.33
2023-10-26T17:02:38.120Z,7.22
2023-10-26T17:05:39.760Z,7.47
2023-10-26T17:08:42.617Z,7.50
2023-10-26T17:11:44.646Z,8.45
2023-10-26T17:14:49.234Z,7.93
2023-10-26T17:17:51.085Z,7.22
2023-10-26T17:20:57.366Z,7.22
2023-10-26T17:23:59.081Z,6.40
2023-10-26T17:27:01.013Z,6.50
2023-10-26T17:30:04.715Z,7.90
2023-10-26T17:33:09.505Z,6.50
2023-10-26T17:36:16.357Z,6.45
2023-10-26T17:39:17.977Z,6.30
2023-10-26T17:42:20.998Z,7.25
2023-10-26T17:45:22.758Z,6.77
2023-10-26T17:48:27.312Z,6.88
2023-10-26T17:51:30.557Z,6.20
2023-10-26T17:54:32.784Z,6.82
2023-10-26T17:57:34.425Z,6.20
2023-10-26T18:00:36.152Z,8.47
2023-10-26T18:03:38.742Z,6.30
2023-10-26T18:06:41.705Z,7.22
2023-10-26T18:09:46.157Z,6.93
2023-10-26T18:12:48.683Z,5.95
2023-10-26T18:16:00.309Z,4.63
2023-10-26T18:19:02.924Z,7.47
2023-10-26T18:22:08.667Z,5.68
2023-10-26T18:25:18.666Z,5.60
2023-10-26T18:28:25.878Z,6.88
2023-10-26T18:31:27.761Z,6.67
2023-10-26T18:34:31.933Z,8.63
2023-10-26T18:37:33.711Z,8.60
2023-10-26T18:40:37.500Z,8.27
2023-10-26T18:43:47.245Z,9.30
2023-10-26T18:46:52.041Z,6.80
2023-10-26T18:49:56.466Z,7.32
2023-10-26T18:53:00.038Z,7.28
2023-10-26T18:56:03.472Z,7.55
2023-10-26T18:59:05.342Z,6.60
2023-10-26T19:02:07.560Z,7.00
2023-10-26T19:05:10.528Z,8.93
2023-10-26T19:08:12.302Z,7.68
2023-10-26T19:11:13.971Z,6.93
2023-10-26T19:14:15.631Z,7.38
2023-10-26T19:17:17.326Z,7.93
2023-10-26T19:20:21.901Z,7.55
2023-10-26T19:23:23.518Z,8.60
2023-10-26T19:26:25.107Z,9.35
2023-10-26T19:29:30.357Z,8.13
2023-10-26T19:32:32.202Z,8.67
2023-10-26T19:35:33.974Z,10.27
2023-10-26T19:38:35.562Z,10.45
2023-10-26T19:41:37.288Z,8.10
2023-10-26T19:44:38.972Z,7.72
2023-10-26T19:47:44.366Z,7.53
2023-10-26T19:50:49.058Z,8.07
2023-10-26T19:53:51.405Z,8.48
2023-10-26T19:56:53.183Z,8.50
2023-10-26T19:59:54.987Z,7.63
2023-10-26T20:02:56.610Z,9.73
2023-10-26T20:05:58.466Z,8.20
2023-10-26T20:09:00.072Z,8.05
2023-10-26T20:12:03.075Z,8.60
2023-10-26T20:15:06.732Z,9.25
2023-10-26T20:18:14.099Z,9.70
2023-10-26T20:21:15.694Z,8.15
2023-10-26T20:24:20.140Z,8.23
2023-10-26T20:27:21.787Z,8.50
2023-10-26T20:30:23.669Z,10.15
2023-10-26T20:33:25.391Z,9.40
2023-10-26T20:36:29.791Z,9.02
2023-10-26T20:39:31.495Z,8.93
2023-10-26T20:42:33.372Z,9.25
2023-10-26T20:45:35.084Z,9.68
2023-10-26T20:48:38.021Z,9.03
2023-10-26T20:51:40.797Z,11.23
2023-10-26T20:54:42.426Z,8.57
2023-10-26T20:57:44.132Z,10.95
2023-10-26T21:00:45.827Z,11.27
2023-10-26T21:03:47.515Z,9.93
2023-10-26T21:06:49.199Z,11.15
2023-10-26T21:09:50.982Z,11.13
2023-10-26T21:12:52.764Z,11.57
2023-10-26T21:16:00.645Z,18.08
2023-10-26T21:19:02.464Z,9.13
2023-10-26T21:22:05.206Z,10.40
2023-10-26T21:25:07.278Z,12.82
2023-10-26T21:28:10.371Z,10.80
2023-10-26T21:31:12.079Z,11.82
2023-10-26T21:34:13.887Z,11.70
2023-10-26T21:37:16.022Z,9.70
2023-10-26T21:40:17.701Z,11.50
2023-10-26T21:43:20.202Z,11.32
2023-10-26T21:46:22.091Z,10.80
2023-10-26T21:49:23.869Z,10.70
2023-10-26T21:52:25.572Z,11.40
2023-10-26T21:55:27.191Z,12.90
2023-10-26T21:58:29.001Z,12.32
2023-10-26T22:01:30.660Z,10.00
2023-10-26T22:04:32.449Z,13.37
2023-10-26T22:07:34.146Z,12.50
2023-10-26T22:10:36.007Z,11.02
2023-10-26T22:13:37.865Z,12.23
2023-10-26T22:16:41.251Z,12.27
2023-10-26T22:19:43.146Z,14.50
2023-10-26T22:22:44.911Z,11.65
2023-10-26T22:25:46.501Z,13.18
2023-10-26T22:28:48.188Z,10.27
2023-10-26T22:31:49.830Z,13.20
2023-10-26T22:34:52.145Z,11.70
2023-10-26T22:37:55.633Z,10.23
2023-10-26T22:40:57.269Z,11.38
2023-10-26T22:43:58.909Z,12.45
2023-10-26T22:47:00.513Z,12.35
2023-10-26T22:50:02.212Z,13.77
2023-10-26T22:53:03.839Z,13.15
2023-10-26T22:56:05.758Z,13.40
2023-10-26T22:59:07.964Z,12.07
2023-10-26T23:02:09.641Z,10.23
2023-10-26T23:05:11.242Z,13.07
2023-10-26T23:08:15.180Z,12.02
2023-10-26T23:11:16.849Z,11.95
2023-10-26T23:14:18.455Z,13.65
2023-10-26T23:17:20.088Z,11.90
2023-10-26T23:20:21.877Z,11.73
2023-10-26T23:23:23.470Z,12.65
2023-10-26T23:26:25.148Z,12.43
2023-10-26T23:29:28.988Z,9.20
2023-10-26T23:32:30.719Z,11.77
2023-10-26T23:35:35.153Z,11.00
2023-10-26T23:38:37.151Z,11.15
2023-10-26T23:41:38.745Z,10.60
2023-10-26T23:44:40.384Z,11.75
2023-10-26T23:47:42.040Z,8.85
2023-10-26T23:50:43.651Z,12.40
2023-10-26T23:53:45.322Z,11.95
2023-10-26T23:56:46.980Z,12.27
2023-10-26T23:59:48.699Z,12.30
